Time;durP1;ratioP1;P1;durP2;ratioP2;P2;SDS_P1;SDS_P2;PMS_P1;PMS_P2;Temp;Humidity;BMP_temperature;BMP_pressure;BME280_temperature;BME280_humidity;BME280_pressure;Samples;Min_cycle;Max_cycle;Signal;HPM_P1;HPM_P2
2021/09/07 00:01:29;;;;;;;16.52;8.15;;;22.60;47.50;;;;;;6197020;28;81616;-64
2021/09/07 00:04:30;;;;;;;15.85;8.52;;;22.60;47.50;;;;;;6190846;28;80481;-64
2021/09/07 00:07:30;;;;;;;13.95;8.23;;;22.60;47.50;;;;;;6184451;28;80417;-64
2021/09/07 00:10:31;;;;;;;17.75;9.27;;;22.60;47.50;;;;;;6175110;28;81405;-64
2021/09/07 00:13:33;;;;;;;17.52;8.63;;;22.60;47.60;;;;;;6183183;28;81438;-63
2021/09/07 00:16:34;;;;;;;18.02;8.52;;;22.60;47.50;;;;;;6189016;28;80302;-63
2021/09/07 00:19:35;;;;;;;14.75;8.13;;;22.60;47.80;;;;;;6183539;28;81500;-64
2021/09/07 00:22:35;;;;;;;15.23;8.05;;;22.60;47.70;;;;;;6181530;28;80891;-63
2021/09/07 00:25:36;;;;;;;14.00;7.93;;;22.60;47.50;;;;;;6171976;28;81392;-64
2021/09/07 00:28:36;;;;;;;18.50;9.18;;;22.60;47.50;;;;;;6182827;28;80392;-64
2021/09/07 00:31:37;;;;;;;16.70;8.40;;;22.60;47.90;;;;;;6182358;28;80519;-64
2021/09/07 00:34:38;;;;;;;17.00;8.45;;;22.60;47.70;;;;;;6178868;28;80371;-64
2021/09/07 00:37:38;;;;;;;18.75;8.27;;;22.60;47.80;;;;;;6186282;28;80362;-64
2021/09/07 00:40:39;;;;;;;12.27;7.70;;;22.60;47.60;;;;;;6183774;28;80648;-64
2021/09/07 00:43:39;;;;;;;13.13;8.38;;;22.60;47.80;;;;;;6190114;28;80552;-64
2021/09/07 00:46:40;;;;;;;15.90;8.63;;;22.60;47.50;;;;;;6189076;28;80297;-64
2021/09/07 00:49:40;;;;;;;12.32;8.00;;;22.60;47.50;;;;;;6163067;28;81886;-64
2021/09/07 00:52:41;;;;;;;17.38;8.60;;;22.50;47.60;;;;;;6180303;28;80447;-64
2021/09/07 00:55:41;;;;;;;12.85;7.97;;;22.60;47.90;;;;;;6191999;28;80447;-64
2021/09/07 00:58:42;;;;;;;13.73;8.00;;;22.60;47.50;;;;;;6191022;28;80734;-64
2021/09/07 01:01:42;;;;;;;11.30;7.32;;;22.50;47.30;;;;;;6194175;28;80581;-65
2021/09/07 01:04:44;;;;;;;16.35;8.38;;;22.60;47.50;;;;;;6188503;28;81535;-64
2021/09/07 01:07:44;;;;;;;13.93;7.75;;;22.50;47.20;;;;;;6182014;28;80498;-64
2021/09/07 01:10:44;;;;;;;15.65;7.88;;;22.50;47.40;;;;;;6179344;28;81004;-64
2021/09/07 01:13:46;;;;;;;15.63;7.93;;;22.50;47.20;;;;;;6180255;28;81319;-64
2021/09/07 01:16:47;;;;;;;19.13;8.48;;;22.50;47.20;;;;;;6188138;28;80385;-64
2021/09/07 01:19:51;;;;;;;13.95;8.10;;;22.50;47.20;;;;;;6179387;28;81490;-64
2021/09/07 01:22:52;;;;;;;15.30;7.40;;;22.50;47.00;;;;;;6179702;28;80536;-64
2021/09/07 01:25:53;;;;;;;15.10;8.13;;;22.50;47.40;;;;;;6192356;28;80571;-64
2021/09/07 01:28:54;;;;;;;16.58;8.05;;;22.50;47.10;;;;;;6180636;28;80583;-64
2021/09/07 01:31:56;;;;;;;15.05;7.72;;;22.50;47.20;;;;;;6177198;28;81631;-64
2021/09/07 01:34:56;;;;;;;12.63;7.32;;;22.50;47.00;;;;;;6188543;28;80692;-64
2021/09/07 01:37:57;;;;;;;16.25;8.77;;;22.50;47.00;;;;;;6192930;28;81013;-64
2021/09/07 01:40:58;;;;;;;13.70;7.45;;;22.50;46.90;;;;;;6171206;28;81019;-64
2021/09/07 01:43:58;;;;;;;13.75;8.25;;;22.50;46.90;;;;;;6175342;28;85805;-65
2021/09/07 01:46:59;;;;;;;12.55;6.97;;;22.50;46.80;;;;;;6175554;28;82795;-65
2021/09/07 01:49:59;;;;;;;14.52;8.38;;;22.50;46.70;;;;;;6189954;28;80393;-66
2021/09/07 01:53:00;;;;;;;15.27;8.35;;;22.50;46.70;;;;;;6182064;28;80325;-66
2021/09/07 01:56:01;;;;;;;14.77;7.60;;;22.50;46.70;;;;;;6197118;28;80424;-66
2021/09/07 01:59:01;;;;;;;17.23;7.97;;;22.50;46.60;;;;;;6184179;28;80348;-65
2021/09/07 02:02:02;;;;;;;14.60;7.93;;;22.40;47.20;;;;;;6177464;28;81650;-65
2021/09/07 02:05:03;;;;;;;14.43;8.25;;;22.50;46.70;;;;;;6193163;28;81122;-66
2021/09/07 02:08:04;;;;;;;16.10;8.07;;;22.40;46.90;;;;;;6188214;28;80527;-66
2021/09/07 02:11:04;;;;;;;15.45;8.05;;;22.40;47.60;;;;;;6192617;28;81554;-66
2021/09/07 02:14:06;;;;;;;17.08;8.30;;;22.40;46.90;;;;;;6187467;28;81539;-65
2021/09/07 02:17:07;;;;;;;13.23;7.75;;;22.40;46.70;;;;;;6185963;28;81553;-66
2021/09/07 02:20:09;;;;;;;12.45;7.25;;;22.40;46.90;;;;;;6178590;28;80728;-65
2021/09/07 02:23:11;;;;;;;13.32;7.63;;;22.50;46.90;;;;;;6184062;28;80517;-64
2021/09/07 02:26:11;;;;;;;12.10;7.88;;;22.40;46.80;;;;;;6186510;28;80487;-64
2021/09/07 02:29:12;;;;;;;11.93;7.82;;;22.50;46.90;;;;;;6183759;28;81959;-65
2021/09/07 02:32:16;;;;;;;16.00;7.85;;;22.50;47.10;;;;;;6192428;28;81128;-64
2021/09/07 02:35:17;;;;;;;13.73;7.95;;;22.40;47.00;;;;;;6182783;28;81725;-65
2021/09/07 02:38:17;;;;;;;11.50;7.07;;;22.40;46.80;;;;;;6183285;28;81320;-64
2021/09/07 02:41:18;;;;;;;13.57;7.35;;;22.40;46.80;;;;;;6191172;28;80262;-64
2021/09/07 02:44:19;;;;;;;13.25;7.95;;;22.40;47.00;;;;;;6189614;28;81410;-64
2021/09/07 02:47:19;;;;;;;15.57;7.50;;;22.40;47.00;;;;;;6193751;28;80291;-64
2021/09/07 02:50:20;;;;;;;11.85;7.47;;;22.40;46.90;;;;;;6181930;28;83043;-64
2021/09/07 02:53:21;;;;;;;15.00;7.38;;;22.40;46.80;;;;;;6185172;28;81360;-64
2021/09/07 02:56:22;;;;;;;14.50;7.75;;;22.40;47.10;;;;;;6177912;28;80986;-64
2021/09/07 02:59:23;;;;;;;16.00;7.35;;;22.40;47.50;;;;;;6184599;28;80466;-66
2021/09/07 03:02:25;;;;;;;17.15;8.30;;;22.40;46.70;;;;;;6198678;28;81718;-65
2021/09/07 03:05:26;;;;;;;14.52;7.35;;;22.40;47.00;;;;;;6181445;28;81603;-65
2021/09/07 03:08:28;;;;;;;14.05;7.60;;;22.40;46.70;;;;;;6192337;28;80494;-64
2021/09/07 03:11:28;;;;;;;16.85;8.82;;;22.40;46.90;;;;;;6183938;28;81449;-64
2021/09/07 03:14:29;;;;;;;13.82;8.27;;;22.40;46.80;;;;;;6183665;28;80654;-64
2021/09/07 03:17:30;;;;;;;13.88;7.70;;;22.40;46.80;;;;;;6183690;28;81004;-64
2021/09/07 03:20:31;;;;;;;14.98;8.15;;;22.40;46.70;;;;;;6188053;28;80405;-64
2021/09/07 03:23:32;;;;;;;16.13;8.63;;;22.40;46.60;;;;;;6159627;28;81799;-64
2021/09/07 03:26:32;;;;;;;15.77;8.38;;;22.40;46.50;;;;;;6180324;28;80338;-64
2021/09/07 03:29:33;;;;;;;13.77;7.88;;;22.40;46.60;;;;;;6188811;28;80591;-64
2021/09/07 03:32:34;;;;;;;15.38;7.30;;;22.30;46.60;;;;;;6185020;28;81396;-64
2021/09/07 03:35:34;;;;;;;13.88;7.70;;;22.40;46.60;;;;;;6192286;28;81650;-64
2021/09/07 03:38:36;;;;;;;15.13;8.07;;;22.40;46.50;;;;;;6181522;28;81511;-64
2021/09/07 03:41:36;;;;;;;15.15;8.15;;;22.40;46.30;;;;;;6182075;28;82493;-63
2021/09/07 03:44:37;;;;;;;13.00;7.25;;;22.30;46.30;;;;;;6196141;28;80513;-63
2021/09/07 03:47:40;;;;;;;13.30;7.00;;;22.30;46.30;;;;;;6173398;28;85300;-64
2021/09/07 03:50:41;;;;;;;14.65;7.22;;;22.30;46.60;;;;;;6178634;28;81444;-64
2021/09/07 03:53:42;;;;;;;14.77;7.32;;;22.40;47.10;;;;;;6179922;28;80671;-64
2021/09/07 03:56:42;;;;;;;13.18;7.18;;;22.30;47.20;;;;;;6182118;28;80817;-64
2021/09/07 03:59:43;;;;;;;12.38;6.72;;;22.30;47.50;;;;;;6183894;28;80770;-63
2021/09/07 04:02:44;;;;;;;13.45;6.82;;;22.40;47.70;;;;;;6183162;28;81677;-66
2021/09/07 04:05:45;;;;;;;14.50;7.10;;;22.40;47.50;;;;;;6188307;28;81790;-65
2021/09/07 04:08:46;;;;;;;12.07;6.60;;;22.40;48.20;;;;;;6174526;28;80662;-66
2021/09/07 04:11:47;;;;;;;13.73;7.20;;;22.30;48.40;;;;;;6177239;28;83228;-65
2021/09/07 04:14:49;;;;;;;14.27;7.00;;;22.30;48.90;;;;;;6176615;28;81475;-67
2021/09/07 04:17:51;;;;;;;11.90;7.00;;;22.30;49.10;;;;;;6180343;28;81253;-66
2021/09/07 04:20:54;;;;;;;11.88;6.88;;;22.40;49.20;;;;;;6180525;28;80528;-66
2021/09/07 04:23:55;;;;;;;14.38;6.63;;;22.40;49.60;;;;;;6173037;28;83741;-66
2021/09/07 04:26:57;;;;;;;11.20;6.70;;;22.40;49.50;;;;;;6182167;28;80526;-65
2021/09/07 04:29:58;;;;;;;13.35;6.57;;;22.40;50.00;;;;;;6195252;28;81373;-64
2021/09/07 04:32:59;;;;;;;11.25;6.65;;;22.40;49.80;;;;;;6191433;28;81830;-66
2021/09/07 04:35:59;;;;;;;15.32;7.15;;;22.50;49.80;;;;;;6189648;28;81173;-64
2021/09/07 04:39:00;;;;;;;16.35;6.80;;;22.50;49.40;;;;;;6182346;28;80579;-63
2021/09/07 04:42:00;;;;;;;12.05;7.15;;;22.50;49.50;;;;;;6172795;28;82061;-64
2021/09/07 04:45:02;;;;;;;10.50;6.80;;;22.40;49.70;;;;;;6175424;28;80621;-65
2021/09/07 04:48:02;;;;;;;11.73;7.25;;;22.40;50.00;;;;;;6179611;28;80429;-64
2021/09/07 04:51:03;;;;;;;11.00;6.82;;;22.40;51.20;;;;;;6175176;28;81963;-65
2021/09/07 04:54:03;;;;;;;10.25;6.45;;;22.50;50.10;;;;;;6188939;28;80704;-65
2021/09/07 04:57:04;;;;;;;10.18;6.72;;;22.50;51.20;;;;;;6183195;28;80695;-64
2021/09/07 05:00:04;;;;;;;13.00;7.55;;;22.50;51.30;;;;;;6181216;28;81740;-64
2021/09/07 05:03:05;;;;;;;11.57;6.63;;;22.50;51.40;;;;;;6180840;28;81851;-65
2021/09/07 05:06:05;;;;;;;10.98;6.65;;;22.60;51.80;;;;;;6182970;28;80690;-65
2021/09/07 05:09:06;;;;;;;15.93;6.97;;;22.50;52.10;;;;;;6175205;28;81467;-64
2021/09/07 05:12:06;;;;;;;13.48;6.97;;;22.60;51.70;;;;;;6180614;28;81304;-64
2021/09/07 05:15:07;;;;;;;15.07;6.80;;;22.60;52.60;;;;;;6181500;28;80634;-64
2021/09/07 05:18:08;;;;;;;19.88;7.15;;;22.60;52.20;;;;;;6190594;28;81397;-64
2021/09/07 05:21:08;;;;;;;12.40;7.07;;;22.60;51.40;;;;;;6187104;28;84001;-66
2021/09/07 05:24:09;;;;;;;12.23;6.63;;;22.60;51.20;;;;;;6190594;28;80643;-66
2021/09/07 05:27:09;;;;;;;11.02;6.63;;;22.60;51.20;;;;;;6179353;28;80634;-65
2021/09/07 05:30:12;;;;;;;14.10;7.45;;;22.60;51.30;;;;;;6184909;28;80277;-66
2021/09/07 05:33:13;;;;;;;13.63;7.47;;;22.50;51.70;;;;;;6180981;28;80602;-65
2021/09/07 05:36:13;;;;;;;12.85;7.05;;;22.60;51.80;;;;;;6175551;28;81906;-65
2021/09/07 05:39:14;;;;;;;11.57;7.43;;;22.60;51.40;;;;;;6176869;28;81281;-64
2021/09/07 05:42:14;;;;;;;14.02;7.15;;;22.60;51.90;;;;;;6173732;28;81562;-64
2021/09/07 05:45:15;;;;;;;16.73;7.45;;;22.60;51.60;;;;;;6180419;28;80124;-64
2021/09/07 05:48:15;;;;;;;13.88;7.03;;;22.60;51.40;;;;;;6181598;28;80760;-64
2021/09/07 05:51:16;;;;;;;21.13;6.65;;;22.60;51.40;;;;;;6179095;28;81612;-64
2021/09/07 05:54:16;;;;;;;12.52;6.75;;;22.60;51.40;;;;;;6185185;28;80867;-64
2021/09/07 05:57:17;;;;;;;16.60;7.53;;;22.60;51.30;;;;;;6186204;28;81845;-64
2021/09/07 06:00:18;;;;;;;13.30;6.90;;;22.60;51.30;;;;;;6188305;28;80362;-64
2021/09/07 06:03:18;;;;;;;12.75;7.43;;;22.60;51.20;;;;;;6175456;28;81247;-63
2021/09/07 06:06:21;;;;;;;15.90;7.97;;;22.50;51.10;;;;;;6180540;28;80498;-64
2021/09/07 06:09:21;;;;;;;13.57;7.80;;;22.60;51.00;;;;;;6178590;28;80772;-63
2021/09/07 06:12:22;;;;;;;17.55;8.00;;;22.60;50.80;;;;;;6183613;28;80523;-64
2021/09/07 06:15:22;;;;;;;15.93;7.43;;;22.50;50.80;;;;;;6187408;28;81704;-64
2021/09/07 06:18:23;;;;;;;14.43;7.97;;;22.60;50.80;;;;;;6190159;28;80504;-64
2021/09/07 06:21:23;;;;;;;17.90;8.63;;;22.50;50.70;;;;;;6174657;28;81354;-63
2021/09/07 06:24:24;;;;;;;16.92;7.65;;;22.50;50.70;;;;;;6182208;28;80647;-64
2021/09/07 06:27:24;;;;;;;14.98;7.82;;;22.60;50.70;;;;;;6172510;28;80963;-64
2021/09/07 06:30:25;;;;;;;16.77;8.38;;;22.50;50.60;;;;;;6185355;28;80257;-64
2021/09/07 06:33:25;;;;;;;17.27;7.60;;;22.60;50.60;;;;;;6190482;28;81538;-64
2021/09/07 06:36:26;;;;;;;13.30;7.72;;;22.60;50.70;;;;;;6180994;28;80569;-63
2021/09/07 06:39:26;;;;;;;17.15;8.73;;;22.60;50.50;;;;;;6184318;28;80672;-64
2021/09/07 06:42:28;;;;;;;16.75;8.40;;;22.60;50.60;;;;;;6183695;28;80477;-64
2021/09/07 06:45:28;;;;;;;16.25;7.80;;;22.60;50.70;;;;;;6186044;28;81800;-65
2021/09/07 06:48:29;;;;;;;13.93;8.20;;;22.50;50.20;;;;;;6180442;28;83608;-64
2021/09/07 06:51:29;;;;;;;16.38;8.45;;;22.50;50.60;;;;;;6184328;28;80681;-64
2021/09/07 06:54:30;;;;;;;16.42;8.65;;;22.60;50.40;;;;;;6185258;28;81824;-64
2021/09/07 06:57:30;;;;;;;15.88;8.02;;;22.60;50.60;;;;;;6185549;28;80689;-64
2021/09/07 07:00:30;;;;;;;15.23;8.68;;;22.50;50.50;;;;;;6184389;28;80420;-64
2021/09/07 07:03:32;;;;;;;13.68;8.30;;;22.60;50.80;;;;;;6181476;28;81468;-64
2021/09/07 07:06:32;;;;;;;14.85;8.90;;;22.60;50.80;;;;;;6182238;28;80389;-64
2021/09/07 07:09:33;;;;;;;14.52;8.38;;;22.60;50.80;;;;;;6182745;28;80664;-64
2021/09/07 07:12:33;;;;;;;15.70;8.48;;;22.60;50.80;;;;;;6176282;28;87898;-64
2021/09/07 07:15:34;;;;;;;14.02;8.07;;;22.50;51.00;;;;;;6184729;28;80586;-64
2021/09/07 07:18:34;;;;;;;13.35;8.40;;;22.50;50.90;;;;;;6183578;28;81622;-64
2021/09/07 07:21:35;;;;;;;15.85;8.43;;;22.50;50.90;;;;;;6183611;28;80530;-64
2021/09/07 07:24:35;;;;;;;13.48;7.82;;;22.60;51.00;;;;;;6183204;28;81005;-64
2021/09/07 07:27:39;;;;;;;15.45;8.13;;;22.60;51.70;;;;;;6179701;28;80175;-64
2021/09/07 07:30:39;;;;;;;15.80;9.07;;;22.60;51.20;;;;;;6176194;28;80197;-64
2021/09/07 07:33:40;;;;;;;16.65;8.85;;;22.60;51.00;;;;;;6185476;28;82025;-64
2021/09/07 07:36:41;;;;;;;13.18;7.88;;;22.60;51.20;;;;;;6175797;28;80586;-65
2021/09/07 07:39:42;;;;;;;17.88;8.85;;;22.60;51.20;;;;;;6182786;28;82123;-67
2021/09/07 07:42:42;;;;;;;17.23;9.25;;;22.60;51.00;;;;;;6180402;28;80608;-64
2021/09/07 07:45:43;;;;;;;18.75;9.30;;;22.60;51.20;;;;;;6175733;28;81514;-64
2021/09/07 07:48:43;;;;;;;20.00;11.27;;;22.60;50.80;;;;;;6173087;28;80918;-64
2021/09/07 07:51:44;;;;;;;23.35;10.65;;;22.60;50.60;;;;;;6169915;28;83360;-64
2021/09/07 07:54:46;;;;;;;25.13;11.85;;;22.60;50.70;;;;;;6172999;28;82989;-64
2021/09/07 07:57:46;;;;;;;26.02;11.68;;;22.50;50.10;;;;;;6174623;28;84571;-64
2021/09/07 08:00:47;;;;;;;19.20;10.57;;;22.50;50.70;;;;;;6182932;28;83104;-66
2021/09/07 08:03:47;;;;;;;23.08;10.75;;;22.50;50.40;;;;;;6189639;28;85278;-65
2021/09/07 08:06:48;;;;;;;21.00;10.73;;;22.50;50.60;;;;;;6193804;28;83201;-65
2021/09/07 08:09:49;;;;;;;27.88;12.18;;;22.50;50.50;;;;;;6196498;28;83478;-64
2021/09/07 08:12:49;;;;;;;24.90;11.45;;;22.50;50.70;;;;;;6185950;28;83335;-64
2021/09/07 08:15:50;;;;;;;26.27;11.07;;;22.50;50.90;;;;;;6190351;28;83801;-64
2021/09/07 08:18:50;;;;;;;23.00;12.48;;;22.50;51.00;;;;;;6181615;28;83795;-64
2021/09/07 08:21:51;;;;;;;25.30;12.35;;;22.50;51.60;;;;;;6184111;28;83262;-64
2021/09/07 08:24:52;;;;;;;19.40;10.57;;;22.50;51.10;;;;;;6182935;28;83073;-65
2021/09/07 08:27:53;;;;;;;24.50;11.23;;;22.60;50.90;;;;;;6181825;28;83085;-64
2021/09/07 08:30:53;;;;;;;21.98;10.90;;;22.60;51.30;;;;;;6178021;28;84446;-65
2021/09/07 08:33:54;;;;;;;25.08;11.45;;;22.60;51.40;;;;;;6189454;28;83283;-65
2021/09/07 08:36:54;;;;;;;23.10;11.73;;;22.60;51.50;;;;;;6194545;28;85647;-65
2021/09/07 08:39:55;;;;;;;23.75;11.50;;;22.60;51.40;;;;;;6195393;28;84120;-65
2021/09/07 08:42:55;;;;;;;21.75;11.02;;;22.60;51.80;;;;;;6185369;28;83266;-65
2021/09/07 08:45:56;;;;;;;21.10;11.52;;;22.60;51.70;;;;;;6182201;28;83292;-65
2021/09/07 08:48:56;;;;;;;24.50;11.30;;;22.60;51.80;;;;;;6183040;28;84409;-65
2021/09/07 08:51:57;;;;;;;25.13;10.57;;;22.60;51.90;;;;;;6182382;28;84089;-65
2021/09/07 08:54:57;;;;;;;25.98;11.63;;;22.60;51.90;;;;;;6178047;28;83353;-66
2021/09/07 08:57:58;;;;;;;20.75;10.32;;;22.60;52.00;;;;;;6177843;28;83020;-65
2021/09/07 09:00:58;;;;;;;21.05;10.50;;;22.60;52.20;;;;;;6189967;28;84073;-65
2021/09/07 09:03:59;;;;;;;20.90;10.52;;;22.70;52.50;;;;;;6183101;28;83035;-65
2021/09/07 09:06:59;;;;;;;22.00;10.40;;;22.70;52.20;;;;;;6179605;28;83559;-65
2021/09/07 09:10:00;;;;;;;22.27;10.20;;;22.70;52.60;;;;;;6180327;28;82831;-65
2021/09/07 09:13:00;;;;;;;23.30;10.45;;;22.70;52.60;;;;;;6195306;28;84394;-66
2021/09/07 09:16:00;;;;;;;23.90;10.80;;;22.70;52.70;;;;;;6179826;28;82879;-65
2021/09/07 09:19:02;;;;;;;21.08;11.02;;;22.70;52.70;;;;;;6171593;28;83264;-64
2021/09/07 09:22:03;;;;;;;22.77;10.35;;;22.70;52.50;;;;;;6177610;28;83212;-64
2021/09/07 09:25:03;;;;;;;19.30;9.55;;;22.70;53.10;;;;;;6177453;28;83485;-65
2021/09/07 09:28:04;;;;;;;20.05;9.80;;;22.70;52.50;;;;;;6178254;28;82904;-65
2021/09/07 09:31:04;;;;;;;18.70;9.85;;;22.70;51.70;;;;;;6172122;28;81608;-65
2021/09/07 09:34:05;;;;;;;21.13;10.27;;;22.70;52.90;;;;;;6178069;28;80727;-65
2021/09/07 09:37:05;;;;;;;16.83;9.50;;;22.60;52.40;;;;;;6189817;28;83057;-64
2021/09/07 09:40:06;;;;;;;19.27;10.23;;;22.60;52.90;;;;;;6186175;28;82843;-65
2021/09/07 09:43:06;;;;;;;20.23;8.70;;;22.70;53.40;;;;;;6178329;28;82898;-64
2021/09/07 09:46:07;;;;;;;22.83;9.73;;;22.70;52.70;;;;;;6187049;28;83757;-65
2021/09/07 09:49:07;;;;;;;22.85;9.55;;;22.70;53.40;;;;;;6184885;28;80467;-65
2021/09/07 09:52:08;;;;;;;17.45;9.15;;;22.70;53.20;;;;;;6183940;28;80810;-65
2021/09/07 09:55:08;;;;;;;20.70;8.63;;;22.70;52.70;;;;;;6181556;28;85891;-64
2021/09/07 09:58:09;;;;;;;21.38;9.63;;;22.70;52.40;;;;;;6180440;28;81713;-65
2021/09/07 10:01:09;;;;;;;23.50;9.10;;;22.70;52.50;;;;;;6179953;28;80535;-64
2021/09/07 10:04:11;;;;;;;22.58;10.15;;;22.70;53.10;;;;;;6171638;28;80416;-64
2021/09/07 10:07:12;;;;;;;23.83;9.57;;;22.70;52.60;;;;;;6178300;28;83126;-65
2021/09/07 10:10:12;;;;;;;22.77;9.43;;;22.70;53.50;;;;;;6180434;28;82629;-64
2021/09/07 10:13:13;;;;;;;14.13;8.57;;;22.70;53.50;;;;;;6166056;28;80915;-65
2021/09/07 10:16:16;;;;;;;20.30;9.23;;;22.70;53.80;;;;;;6182790;28;80893;-65
2021/09/07 10:19:25;;;;;;;18.90;9.02;;;22.70;53.70;;;;;;6177058;28;80746;-65
2021/09/07 10:25:45;;;;;;;18.23;8.57;;;22.80;54.30;;;;;;6183855;28;81745;-65
2021/09/07 10:28:46;;;;;;;16.42;8.27;;;22.80;54.70;;;;;;6157981;28;81201;-65
2021/09/07 10:31:47;;;;;;;21.10;8.18;;;22.80;54.70;;;;;;6154292;28;80750;-65
2021/09/07 10:34:47;;;;;;;19.23;9.75;;;22.90;55.20;;;;;;6153259;28;81224;-65
2021/09/07 10:37:48;;;;;;;19.58;9.38;;;22.80;56.10;;;;;;6159287;28;81732;-65
2021/09/07 10:40:48;;;;;;;15.63;8.40;;;22.90;56.20;;;;;;6160621;28;82147;-65
2021/09/07 10:43:49;;;;;;;18.20;9.18;;;22.90;55.50;;;;;;6159257;28;80539;-65
2021/09/07 10:46:49;;;;;;;17.55;8.88;;;22.90;55.30;;;;;;6155981;28;80849;-65
2021/09/07 10:49:50;;;;;;;15.32;8.90;;;22.90;55.60;;;;;;6168634;28;82019;-65
2021/09/07 10:52:51;;;;;;;15.27;8.68;;;23.00;56.60;;;;;;6180474;28;81029;-65
2021/09/07 10:55:51;;;;;;;15.80;8.10;;;23.00;56.80;;;;;;6177694;28;80769;-66
2021/09/07 10:58:52;;;;;;;14.18;8.15;;;23.10;56.10;;;;;;6183182;28;80660;-66
2021/09/07 11:01:53;;;;;;;15.57;8.50;;;23.10;54.40;;;;;;6186005;28;80255;-65
2021/09/07 11:04:53;;;;;;;14.40;8.10;;;23.20;54.60;;;;;;6182639;28;81889;-66
2021/09/07 11:07:53;;;;;;;10.95;7.05;;;23.20;52.90;;;;;;6179162;28;80606;-65
2021/09/07 11:10:54;;;;;;;13.68;8.20;;;23.30;51.80;;;;;;6185556;28;80353;-65
2021/09/07 11:13:57;;;;;;;11.68;7.32;;;23.30;50.80;;;;;;6182797;28;80270;-64
2021/09/07 11:16:58;;;;;;;11.00;7.32;;;23.40;50.60;;;;;;6183484;28;81220;-65
2021/09/07 11:19:58;;;;;;;12.18;7.40;;;23.40;50.70;;;;;;6184488;28;87236;-65
2021/09/07 11:22:59;;;;;;;14.77;8.07;;;23.40;50.80;;;;;;6183126;28;81722;-64
2021/09/07 11:25:59;;;;;;;10.52;7.45;;;23.40;49.40;;;;;;6171397;28;82454;-65
2021/09/07 11:29:00;;;;;;;10.10;7.28;;;23.50;49.40;;;;;;6181317;28;80281;-65
2021/09/07 11:32:00;;;;;;;13.07;7.55;;;23.40;49.60;;;;;;6169019;28;81105;-65
2021/09/07 11:35:01;;;;;;;10.23;7.15;;;23.50;49.30;;;;;;6186778;28;81730;-64
2021/09/07 11:38:01;;;;;;;23.08;8.25;;;23.50;48.50;;;;;;6196540;28;80504;-65
2021/09/07 11:41:02;;;;;;;11.55;7.50;;;23.60;49.00;;;;;;6191214;28;80503;-65
2021/09/07 11:44:02;;;;;;;16.30;8.45;;;23.60;48.00;;;;;;6183719;28;80484;-65
2021/09/07 11:47:03;;;;;;;11.32;7.75;;;23.60;48.00;;;;;;6185589;28;83593;-66
2021/09/07 11:50:03;;;;;;;12.98;8.32;;;23.70;47.80;;;;;;6189876;28;81391;-65
2021/09/07 11:53:04;;;;;;;11.68;7.60;;;23.70;48.10;;;;;;6184013;28;80489;-65
2021/09/07 11:56:05;;;;;;;11.32;7.30;;;23.70;47.70;;;;;;6182810;28;81480;-65
2021/09/07 11:59:06;;;;;;;11.07;8.00;;;23.70;48.30;;;;;;6182794;28;81384;-66
2021/09/07 12:02:06;;;;;;;12.32;7.82;;;23.60;48.10;;;;;;6175671;28;80927;-66
2021/09/07 12:05:07;;;;;;;12.77;7.85;;;23.60;48.30;;;;;;6181501;28;84699;-66
2021/09/07 12:08:07;;;;;;;11.05;7.88;;;23.60;48.40;;;;;;6180713;28;81513;-66
2021/09/07 12:11:08;;;;;;;11.90;7.82;;;23.60;49.00;;;;;;6180979;28;80999;-66
2021/09/07 12:14:08;;;;;;;11.50;7.97;;;23.70;48.40;;;;;;6175600;28;80389;-65
2021/09/07 12:17:11;;;;;;;10.90;7.50;;;23.70;48.90;;;;;;6179201;28;82907;-65
2021/09/07 12:20:12;;;;;;;11.98;8.07;;;23.60;48.70;;;;;;6198362;28;82274;-65
2021/09/07 12:23:12;;;;;;;12.15;7.85;;;23.70;49.00;;;;;;6179974;28;80316;-65
2021/09/07 12:26:13;;;;;;;14.70;7.68;;;23.70;48.90;;;;;;6176423;28;81755;-65
2021/09/07 12:29:13;;;;;;;10.23;7.85;;;23.70;49.10;;;;;;6197867;28;81110;-66
2021/09/07 12:32:14;;;;;;;18.98;7.78;;;23.70;48.40;;;;;;6187360;28;81140;-65
2021/09/07 12:35:14;;;;;;;12.70;8.00;;;23.70;48.90;;;;;;6172563;28;80450;-64
2021/09/07 12:38:15;;;;;;;11.75;7.95;;;23.70;49.30;;;;;;6174250;28;83618;-64
2021/09/07 12:41:16;;;;;;;13.32;8.43;;;23.80;49.30;;;;;;6171436;28;81641;-66
2021/09/07 12:44:16;;;;;;;10.05;7.10;;;23.70;49.20;;;;;;6171057;28;81935;-66
2021/09/07 12:47:17;;;;;;;13.77;7.95;;;23.70;49.20;;;;;;6181768;28;83066;-66
2021/09/07 12:50:17;;;;;;;13.38;8.60;;;23.80;49.10;;;;;;6184211;28;82176;-66
2021/09/07 12:53:22;;;;;;;10.55;7.07;;;23.90;49.10;;;;;;6199290;28;81071;-66
2021/09/07 12:56:23;;;;;;;13.00;8.48;;;23.80;49.20;;;;;;6178447;28;81831;-66
2021/09/07 12:59:23;;;;;;;13.60;8.40;;;23.90;49.20;;;;;;6191200;28;82215;-66
2021/09/07 13:02:24;;;;;;;13.07;8.85;;;23.80;49.60;;;;;;6194673;28;81570;-66
2021/09/07 13:05:24;;;;;;;14.02;8.07;;;23.80;49.90;;;;;;6173443;28;80446;-66
2021/09/07 13:08:25;;;;;;;12.20;8.13;;;23.80;49.60;;;;;;6178449;28;80603;-66
2021/09/07 13:11:25;;;;;;;15.65;8.02;;;23.80;49.80;;;;;;6176706;28;81498;-65
2021/09/07 13:14:26;;;;;;;13.43;8.52;;;23.80;50.40;;;;;;6177148;28;80551;-67
2021/09/07 13:17:26;;;;;;;12.23;7.40;;;23.80;50.50;;;;;;6182034;28;82487;-65
2021/09/07 13:20:27;;;;;;;12.85;8.20;;;23.90;50.50;;;;;;6176505;28;80615;-64
2021/09/07 13:23:27;;;;;;;13.63;8.10;;;23.80;50.50;;;;;;6179908;28;81099;-65
2021/09/07 13:26:28;;;;;;;11.05;7.35;;;23.80;50.50;;;;;;6180257;28;80448;-65
2021/09/07 13:29:28;;;;;;;13.13;8.30;;;23.80;50.60;;;;;;6176260;28;82400;-66
2021/09/07 13:32:29;;;;;;;20.65;8.70;;;23.80;50.90;;;;;;6178853;28;80750;-65
2021/09/07 13:35:29;;;;;;;11.45;7.40;;;23.70;50.80;;;;;;6178904;28;80317;-65
2021/09/07 13:38:30;;;;;;;13.15;7.95;;;23.80;50.80;;;;;;6177621;28;80528;-65
2021/09/07 13:41:30;;;;;;;15.15;7.93;;;23.70;51.00;;;;;;6178347;28;81016;-66
2021/09/07 13:44:31;;;;;;;11.85;7.57;;;23.70;50.80;;;;;;6177125;28;80893;-65
2021/09/07 13:47:31;;;;;;;13.00;8.77;;;23.60;51.00;;;;;;6178052;28;80354;-66
2021/09/07 13:50:32;;;;;;;11.50;7.53;;;23.60;51.20;;;;;;6179139;28;80415;-67
2021/09/07 13:53:34;;;;;;;12.40;8.32;;;23.60;51.30;;;;;;6179318;28;82034;-66
2021/09/07 13:56:34;;;;;;;12.50;8.15;;;23.60;51.40;;;;;;6177685;28;81982;-67
2021/09/07 13:59:35;;;;;;;11.73;7.90;;;23.60;51.40;;;;;;6182678;28;80163;-65
2021/09/07 14:02:36;;;;;;;14.20;8.13;;;23.60;51.60;;;;;;6173412;28;80369;-66
2021/09/07 14:05:36;;;;;;;12.25;7.63;;;23.60;51.60;;;;;;6175271;28;81708;-66
2021/09/07 14:08:37;;;;;;;17.67;8.10;;;23.60;51.70;;;;;;6182153;28;80927;-67
2021/09/07 14:11:41;;;;;;;13.05;8.18;;;23.60;51.90;;;;;;6182377;28;80541;-66
2021/09/07 14:14:41;;;;;;;13.27;8.43;;;23.50;51.70;;;;;;6158383;28;84804;-66
2021/09/07 14:17:42;;;;;;;12.45;7.72;;;23.50;51.70;;;;;;6184663;28;80961;-67
2021/09/07 14:20:43;;;;;;;11.82;7.10;;;23.50;52.30;;;;;;6180968;28;81836;-66
2021/09/07 14:23:43;;;;;;;13.70;7.90;;;23.50;52.20;;;;;;6191837;28;87954;-66
2021/09/07 14:26:44;;;;;;;11.02;7.78;;;23.60;52.00;;;;;;6185415;28;81202;-64
2021/09/07 14:29:45;;;;;;;9.00;6.75;;;23.60;51.90;;;;;;6185081;28;80611;-64
2021/09/07 14:32:45;;;;;;;12.88;7.13;;;23.50;52.20;;;;;;6171422;28;82011;-66
2021/09/07 14:35:46;;;;;;;12.35;7.65;;;23.50;52.20;;;;;;6180130;28;80590;-67
2021/09/07 14:38:46;;;;;;;12.25;6.82;;;23.60;52.10;;;;;;6183056;28;81425;-71
2021/09/07 14:41:47;;;;;;;14.32;7.25;;;23.60;52.00;;;;;;6186560;28;80598;-65
2021/09/07 14:44:47;;;;;;;15.80;7.22;;;23.60;52.30;;;;;;6194101;28;81893;-64
2021/09/07 14:47:48;;;;;;;14.13;8.10;;;23.60;52.30;;;;;;6184960;28;80552;-63
2021/09/07 14:50:49;;;;;;;14.82;7.90;;;23.60;52.00;;;;;;6187620;28;81928;-63
2021/09/07 14:53:49;;;;;;;15.38;6.82;;;23.50;52.00;;;;;;6185310;28;80439;-63
2021/09/07 14:56:50;;;;;;;10.27;6.85;;;23.60;51.90;;;;;;6189274;28;80367;-64
2021/09/07 14:59:50;;;;;;;10.38;6.70;;;23.60;51.90;;;;;;6196620;28;80482;-64
2021/09/07 15:02:51;;;;;;;13.02;7.75;;;23.60;51.90;;;;;;6174767;28;80864;-64
2021/09/07 15:05:51;;;;;;;11.38;7.30;;;23.60;51.60;;;;;;6183613;28;80575;-64
2021/09/07 15:08:52;;;;;;;12.65;7.20;;;23.50;51.60;;;;;;6183638;28;80555;-63
2021/09/07 15:11:52;;;;;;;11.48;7.30;;;23.50;51.70;;;;;;6175986;28;80573;-64
2021/09/07 15:14:53;;;;;;;15.48;7.60;;;23.60;51.60;;;;;;6180054;28;80494;-65
2021/09/07 15:17:53;;;;;;;13.18;7.68;;;23.50;51.50;;;;;;6176970;28;81380;-64
2021/09/07 15:20:54;;;;;;;12.73;7.63;;;23.50;51.40;;;;;;6185623;28;81514;-65
2021/09/07 15:23:54;;;;;;;9.95;7.30;;;23.50;51.90;;;;;;6195703;28;80563;-64
2021/09/07 15:26:55;;;;;;;13.75;7.57;;;23.50;51.30;;;;;;6183512;28;80486;-64
2021/09/07 15:29:55;;;;;;;11.88;7.88;;;23.50;51.20;;;;;;6179140;28;80507;-64